Watauga, SD (57660)

5:04 PM MST on December 08, 2016 (GMT -0700)
Hettinger Municipal | | Change Station

Elev 2703 ft 46.01 °N, 102.66 °W | Updated 11 minutes ago

Clear
Clear
-5 °F
Feels Like -19 °F
N
7
Wind Variable Wind from NW

Today
High -- | Low -- °F
--% Chance of Precip.
Yesterday
High -- | Low -- °F
Precip. -- in
Pressure 30.77 in
Visibility 10.0 miles
Clouds Clear
Windchill -19 °F
Dew Point -9 °F
Humidity 83%
Rainfall 0.00 in
Snow Depth Not available.
7:15 AM 4:01 PM
Waxing Gibbous, 68% visible
METAR KHEI 082353Z AUTO 31006KT 10SM CLR M21/M23 A3053 RMK AO2 SLP420 T12061228 11172 21206 58004
Pressure 30.77 in
Visibility 10.0 miles
Clouds Clear
Windchill -19 °F
Dew Point -9 °F
Humidity 83%
Rainfall 0.00 in
Snow Depth Not available.
7:15 AM 4:01 PM
Waxing Gibbous, 68% visible
METAR KHEI 082353Z AUTO 31006KT 10SM CLR M21/M23 A3053 RMK AO2 SLP420 T12061228 11172 21206 58004

10-Day Weather Forecast

Almanac

Astronomy

Dec. 08, 2016 Rise Set
Actual Time
Civil Twilight
Nautical Twilight
Astronomical Twilight
Moon
Length of Visible Light
Length of Day
Tomorrow will be .
, % of the Moon is Illuminated

Today's Extremes

State Highs State Lows

Community

WunderPhotos

Upload Photos

1,956,277 photos uploaded!

WunderBlog® & News

Nearby

Air Quality

  Air Quality AQ Index Pollutant
Not available.

Snow Depth

Station Depth Elevation

Earthquake Activity

City Distance Mag. Time & Date
Minimum magnitude displayed is 2.5.

Coastal Water Temperatures

Place Temperature

Stations

Nearby Weather Stations

Station Location Temp. Windchill Dew Point Humidity Wind Precip. Elev Updated Type
                   

Watches & Warnings

There are currently no watches in effect.